createdAt,value
2018-09-02T00:48:06.941Z,0.13
2018-09-02T00:50:42.619Z,0.20
2018-09-02T00:53:22.491Z,0.10
2018-09-02T00:55:59.960Z,0.13
2018-09-02T00:58:33.992Z,0.20
2018-09-02T01:01:06.430Z,0.17
2018-09-02T01:03:40.177Z,0.10
2018-09-02T01:06:28.598Z,0.20
2018-09-02T01:09:02.907Z,0.10
2018-09-02T01:11:36.184Z,0.13
2018-09-02T01:21:22.846Z,0.10
2018-09-02T01:23:57.385Z,0.20
2018-09-02T01:26:34.005Z,0.10
2018-09-02T01:29:11.610Z,0.17
2018-09-02T01:31:48.469Z,0.13
2018-09-02T01:34:20.436Z,0.13
2018-09-02T01:37:09.262Z,0.10
2018-09-02T01:42:55.949Z,0.10
2018-09-02T01:45:29.385Z,0.20
2018-09-02T01:48:01.527Z,0.17
2018-09-02T01:50:32.421Z,0.20
2018-09-02T01:53:11.362Z,0.20
2018-09-02T01:55:47.153Z,0.20
2018-09-02T02:04:20.567Z,0.20
2018-09-02T02:06:54.367Z,0.20
2018-09-02T02:09:32.080Z,0.20
2018-09-02T02:23:12.099Z,0.20
2018-09-02T02:25:45.548Z,0.10
2018-09-02T02:28:18.741Z,0.17
2018-09-02T02:30:49.874Z,0.20
2018-09-02T02:33:23.573Z,0.20
2018-09-02T02:38:32.384Z,0.60
2018-09-02T02:41:03.461Z,0.40
2018-09-02T02:43:35.733Z,0.50
2018-09-02T02:46:09.796Z,0.57
2018-09-02T02:48:43.156Z,0.50
2018-09-02T02:51:16.033Z,0.47
2018-09-02T02:53:49.614Z,0.40
2018-09-02T02:56:21.946Z,0.50
2018-09-02T02:58:55.731Z,0.50
2018-09-02T03:01:27.894Z,0.37
2018-09-02T03:04:03.499Z,0.10
2018-09-02T03:06:39.035Z,0.10
2018-09-02T03:09:12.884Z,0.10
2018-09-02T03:11:47.388Z,0.20
2018-09-02T03:14:19.691Z,0.30
2018-09-02T03:16:50.760Z,0.30
2018-09-02T03:19:22.735Z,0.40
2018-09-02T03:21:57.462Z,0.30
2018-09-02T03:24:34.561Z,0.40
2018-09-02T03:27:08.285Z,0.47
2018-09-02T03:29:39.755Z,0.30
2018-09-02T03:32:13.180Z,0.47
2018-09-02T03:34:45.205Z,0.30
2018-09-02T03:37:17.759Z,0.40
2018-09-02T03:39:52.569Z,0.30
2018-09-02T03:42:28.137Z,0.30
2018-09-02T03:45:12.606Z,0.40
2018-09-02T03:47:45.366Z,0.63
2018-09-02T03:50:22.373Z,0.50
2018-09-02T03:52:55.904Z,0.40
2018-09-02T03:55:31.057Z,0.50
2018-09-02T03:58:05.560Z,0.50
2018-09-02T04:00:40.128Z,1.20
2018-09-02T04:15:37.408Z,0.90
2018-09-02T04:21:19.193Z,1.00
2018-09-02T04:23:56.878Z,1.10
2018-09-02T04:26:40.727Z,0.90
2018-09-02T04:29:20.063Z,0.97
2018-09-02T04:32:02.012Z,0.90
2018-09-02T04:34:44.096Z,0.90
2018-09-02T04:37:28.226Z,0.80
2018-09-02T04:56:00.576Z,0.70
2018-09-02T04:58:40.713Z,0.67
2018-09-02T05:04:15.443Z,0.40
2018-09-02T05:10:36.815Z,0.57
2018-09-02T05:31:58.075Z,0.10
2018-09-02T05:34:44.655Z,0.10
2018-09-02T06:04:48.163Z,0.07
2018-09-02T13:09:38.646Z,0.00
2018-09-02T15:47:29.277Z,0.00
2018-09-02T15:49:58.703Z,0.00
2018-09-02T15:52:29.373Z,0.00
2018-09-02T15:54:59.621Z,0.00
2018-09-02T15:57:30.199Z,0.00
2018-09-02T16:00:00.950Z,0.00
2018-09-02T16:02:32.919Z,0.00
2018-09-02T16:05:05.650Z,0.00
2018-09-02T16:07:49.295Z,0.10
2018-09-02T16:10:21.419Z,0.00
2018-09-02T16:12:52.731Z,0.00
2018-09-02T16:15:26.055Z,0.00
2018-09-02T16:17:59.587Z,0.00
2018-09-02T16:20:30.453Z,0.00
2018-09-02T16:23:03.774Z,0.00
2018-09-02T16:25:36.746Z,0.00
2018-09-02T16:28:11.166Z,0.10
2018-09-02T16:30:43.435Z,0.00
2018-09-02T16:33:17.829Z,0.00
2018-09-02T16:35:52.779Z,0.10
2018-09-02T16:38:27.544Z,0.10
2018-09-02T16:41:07.617Z,0.00
2018-09-02T16:43:40.524Z,0.00
2018-09-02T16:46:14.278Z,0.00
2018-09-02T16:49:03.590Z,0.00
2018-09-02T20:19:30.369Z,0.10
2018-09-02T20:43:29.430Z,0.07
2018-09-02T21:04:16.728Z,0.10
2018-09-02T21:29:49.753Z,0.13
2018-09-02T22:40:22.722Z,0.10
2018-09-02T22:43:01.770Z,0.10
2018-09-02T22:45:50.039Z,0.10
2018-09-02T22:48:31.221Z,0.10
2018-09-02T22:51:18.071Z,0.17
2018-09-02T22:54:05.320Z,0.10
2018-09-02T23:02:59.563Z,0.10
2018-09-02T23:05:34.569Z,0.10
2018-09-02T23:08:23.864Z,0.20
2018-09-02T23:11:23.072Z,0.10
2018-09-02T23:44:28.839Z,0.10
2018-09-02T23:47:02.195Z,0.10
2018-09-02T23:49:34.342Z,0.20
2018-09-02T23:52:10.856Z,0.20
2018-09-02T23:54:44.534Z,0.10
2018-09-02T23:57:18.583Z,0.20
2018-09-02T23:59:53.634Z,0.17
